Time;durP1;ratioP1;P1;durP2;ratioP2;P2;SDS_P1;SDS_P2;PMS_P1;PMS_P2;Temp;Humidity;BMP_temperature;BMP_pressure;BME280_temperature;BME280_humidity;BME280_pressure;Samples;Min_cycle;Max_cycle;Signal;HPM_P1;HPM_P2
2023/11/17 00:00:23;;;;;;;7.67;3.20;;;;;;;3.10;90.61;100285.27;1697214;83;21105;-66
2023/11/17 00:02:51;;;;;;;5.33;2.92;;;;;;;3.08;90.61;100297.61;1697016;84;21477;-67
2023/11/17 00:05:21;;;;;;;4.45;2.80;;;;;;;3.08;90.76;100299.47;1697072;84;21022;-65
2023/11/17 00:07:52;;;;;;;4.60;2.95;;;;;;;3.09;90.86;100299.81;1696950;83;21505;-65
2023/11/17 00:10:21;;;;;;;4.55;2.95;;;;;;;3.09;90.84;100297.11;1697250;84;21043;-66
2023/11/17 00:12:50;;;;;;;3.62;2.72;;;;;;;3.09;90.88;100299.81;1696961;84;21078;-66
2023/11/17 00:15:19;;;;;;;4.25;2.60;;;;;;;3.06;90.81;100302.83;1697246;84;21077;-66
2023/11/17 00:17:51;;;;;;;4.22;2.40;;;;;;;3.05;90.76;100302.47;1697027;84;21588;-66
2023/11/17 00:20:20;;;;;;;2.90;2.50;;;;;;;3.02;90.50;100296.86;1696983;83;21512;-66
2023/11/17 00:22:50;;;;;;;5.97;3.10;;;;;;;2.99;90.48;100293.61;1697007;84;21533;-66
2023/11/17 00:25:19;;;;;;;4.37;2.90;;;;;;;3.01;90.53;100292.95;1696780;84;21910;-66
2023/11/17 09:16:40;;;;;;;16.80;8.88;;;;;;;4.20;86.99;100448.99;1818111;77;22105;-74
2023/11/17 09:19:11;;;;;;;17.55;9.00;;;;;;;4.14;86.68;100449.96;1787207;80;21118;-70
2023/11/17 09:21:40;;;;;;;28.80;13.70;;;;;;;4.13;86.37;100445.55;1788567;80;21538;-74
2023/11/17 09:24:13;;;;;;;18.90;8.68;;;;;;;4.15;86.42;100452.17;1792503;80;21662;-76
2023/11/17 09:26:42;;;;;;;22.75;8.43;;;;;;;4.17;86.37;100448.80;1762690;80;21530;-72
2023/11/17 09:29:11;;;;;;;20.23;9.50;;;;;;;4.20;86.29;100447.64;1794476;80;21142;-74
2023/11/17 09:31:40;;;;;;;16.32;8.10;;;;;;;4.22;86.14;100438.34;1792935;80;21203;-73
2023/11/17 09:34:11;;;;;;;18.55;9.08;;;;;;;4.24;86.00;100439.03;1788437;80;21135;-75
2023/11/17 09:36:40;;;;;;;18.73;9.55;;;;;;;4.26;85.93;100440.23;1758369;80;21155;-72
2023/11/17 09:39:10;;;;;;;18.25;8.55;;;;;;;4.29;85.98;100438.06;1788496;80;21124;-73
2023/11/17 09:41:40;;;;;;;15.83;8.15;;;;;;;4.34;85.93;100438.95;1788503;80;21151;-72
2023/11/17 09:44:09;;;;;;;15.83;8.65;;;;;;;4.34;85.68;100432.16;1788410;80;21586;-72
2023/11/17 09:46:46;;;;;;;20.43;9.38;;;;;;;4.32;85.58;100434.19;1788293;80;21140;-73
2023/11/17 09:49:15;;;;;;;20.68;10.38;;;;;;;4.28;85.09;100438.22;1788645;80;21119;-73
2023/11/17 09:51:44;;;;;;;22.60;9.78;;;;;;;4.19;85.02;100436.44;1788445;80;21193;-72
2023/11/17 09:54:13;;;;;;;20.50;9.43;;;;;;;4.19;85.18;100440.51;1788505;79;21092;-72
2023/11/17 09:56:43;;;;;;;20.68;9.80;;;;;;;4.21;85.23;100437.98;1788509;80;21123;-72
2023/11/17 09:59:11;;;;;;;20.10;9.78;;;;;;;4.21;85.15;100438.49;1788595;80;21127;-72
2023/11/17 10:01:40;;;;;;;19.27;10.30;;;;;;;4.23;85.26;100441.90;1788408;79;21569;-74
2023/11/17 10:04:09;;;;;;;22.87;10.08;;;;;;;4.24;85.29;100434.97;1788463;80;21138;-75
2023/11/17 10:06:41;;;;;;;19.75;10.28;;;;;;;4.27;85.83;100437.36;1788506;80;21127;-74
2023/11/17 10:09:11;;;;;;;23.85;12.05;;;;;;;4.32;85.88;100435.54;1788537;79;21138;-75
2023/11/17 10:11:41;;;;;;;25.12;12.53;;;;;;;4.33;85.78;100435.89;1769019;80;21569;-74
2023/11/17 10:14:12;;;;;;;25.48;12.47;;;;;;;4.33;85.47;100441.31;1788315;79;21182;-72
2023/11/17 10:16:43;;;;;;;24.35;12.53;;;;;;;4.31;85.53;100432.48;1788511;79;21518;-73
2023/11/17 10:19:14;;;;;;;21.60;10.60;;;;;;;4.29;85.18;100438.06;1788724;80;21558;-72
2023/11/17 10:21:45;;;;;;;22.80;12.30;;;;;;;4.30;85.01;100436.20;1788704;80;21158;-73
2023/11/17 10:24:14;;;;;;;42.80;17.77;;;;;;;4.28;84.89;100434.15;1788610;80;21167;-72
2023/11/17 10:26:43;;;;;;;35.73;17.27;;;;;;;4.27;84.76;100431.94;1788472;80;21156;-70
2023/11/17 10:29:12;;;;;;;40.28;16.97;;;;;;;4.27;84.67;100433.30;1788288;80;21122;-73
2023/11/17 10:31:43;;;;;;;30.52;14.90;;;;;;;4.26;84.53;100426.67;1788318;80;21159;-73
2023/11/17 10:34:13;;;;;;;28.98;13.90;;;;;;;4.28;84.58;100429.58;1788059;80;21144;-74
2023/11/17 10:36:57;;;;;;;26.87;13.10;;;;;;;4.27;84.42;100430.58;1788333;80;21116;-73
2023/11/17 10:39:27;;;;;;;26.02;13.25;;;;;;;4.28;84.48;100424.66;1788313;80;21163;-72
2023/11/17 10:41:55;;;;;;;23.87;13.15;;;;;;;4.29;84.29;100430.42;1787919;80;21136;-73
2023/11/17 10:44:38;;;;;;;27.95;12.65;;;;;;;4.30;84.38;100432.13;1787880;80;22034;-74
2023/11/17 10:47:07;;;;;;;28.30;14.28;;;;;;;4.35;84.53;100427.09;1788200;80;21120;-72
2023/11/17 10:49:35;;;;;;;30.12;14.60;;;;;;;4.39;84.64;100436.11;1760510;80;21120;-73
2023/11/17 10:52:05;;;;;;;31.30;14.53;;;;;;;4.40;84.35;100424.75;1788234;80;21684;-74
2023/11/17 10:54:34;;;;;;;30.95;14.43;;;;;;;4.40;84.35;100427.47;1788396;80;21140;-72
2023/11/17 10:57:10;;;;;;;25.55;14.80;;;;;;;4.45;84.88;100435.98;1735710;80;21135;-73
2023/11/17 10:59:43;;;;;;;20.68;10.72;;;;;;;4.49;84.83;100431.95;1788433;80;21116;-73
2023/11/17 11:02:14;;;;;;;26.30;14.43;;;;;;;4.50;84.55;100427.37;1785393;80;21144;-75
2023/11/17 11:04:45;;;;;;;27.42;14.63;;;;;;;4.48;84.45;100422.11;1788125;80;21612;-73
2023/11/17 11:07:16;;;;;;;31.25;15.45;;;;;;;4.50;84.42;100432.80;1788503;80;21538;-72
2023/11/17 11:09:45;;;;;;;27.40;14.80;;;;;;;4.49;84.35;100429.73;1788228;80;21192;-73
2023/11/17 11:12:14;;;;;;;23.35;13.48;;;;;;;4.50;84.29;100429.58;1788164;80;21183;-74
2023/11/17 11:14:43;;;;;;;28.50;14.25;;;;;;;4.50;84.12;100428.23;1788232;80;21160;-74
2023/11/17 11:17:13;;;;;;;33.15;14.87;;;;;;;4.47;83.81;100435.32;1774717;80;21175;-73
2023/11/17 11:19:44;;;;;;;29.55;14.83;;;;;;;4.44;83.83;100436.48;1706307;81;21164;-74
2023/11/17 11:22:18;;;;;;;27.70;14.23;;;;;;;4.43;83.89;100436.14;1771440;81;21172;-74
2023/11/17 11:24:48;;;;;;;34.73;15.60;;;;;;;4.46;84.00;100432.27;1774629;81;21124;-73
2023/11/17 11:27:17;;;;;;;33.50;15.98;;;;;;;4.47;83.87;100436.68;1774467;81;21523;-72
2023/11/17 11:29:47;;;;;;;41.60;18.42;;;;;;;4.44;83.82;100436.99;1774520;81;21088;-72
2023/11/17 11:32:16;;;;;;;33.18;15.45;;;;;;;4.42;83.61;100434.94;1774202;81;21104;-73
2023/11/17 11:34:45;;;;;;;32.25;14.20;;;;;;;4.40;83.72;100440.52;1774492;81;21159;-73
2023/11/17 11:37:13;;;;;;;25.23;12.18;;;;;;;4.40;83.93;100441.03;1774379;80;21151;-72
2023/11/17 11:39:42;;;;;;;24.40;11.70;;;;;;;4.39;83.99;100445.61;1774362;79;21574;-71
2023/11/17 11:42:12;;;;;;;28.73;12.98;;;;;;;4.37;84.60;100442.20;1774391;81;21115;-73
2023/11/17 11:44:41;;;;;;;19.42;10.63;;;;;;;4.39;84.81;100442.05;1774368;79;21523;-72
2023/11/17 11:47:11;;;;;;;21.65;10.00;;;;;;;4.38;84.71;100440.34;1774272;81;21535;-73
2023/11/17 11:49:40;;;;;;;19.45;8.88;;;;;;;4.38;84.91;100443.05;1774560;81;21112;-73
2023/11/17 11:52:20;;;;;;;21.65;10.03;;;;;;;4.39;85.13;100447.47;1774229;81;21586;-74
2023/11/17 11:54:51;;;;;;;25.32;13.08;;;;;;;4.37;85.19;100445.41;1774334;80;21119;-71
2023/11/17 11:57:27;;;;;;;24.50;11.18;;;;;;;4.34;85.29;100434.88;1774359;81;21135;-75
2023/11/17 12:00:12;;;;;;;17.95;9.85;;;;;;;4.33;85.39;100434.53;1774917;81;21543;-72
2023/11/17 12:02:57;;;;;;;20.43;9.70;;;;;;;4.32;85.51;100430.97;1741180;81;21076;-73
2023/11/17 12:05:33;;;;;;;16.23;8.75;;;;;;;4.32;85.67;100434.19;1763952;81;21112;-72
2023/11/17 12:08:04;;;;;;;15.28;8.23;;;;;;;4.32;85.76;100430.97;1774319;81;21135;-73
2023/11/17 12:10:35;;;;;;;18.07;8.53;;;;;;;4.36;85.97;100422.01;1764143;81;21151;-73
2023/11/17 12:13:07;;;;;;;15.38;8.08;;;;;;;4.35;85.98;100419.80;1774364;81;21135;-72
2023/11/17 12:15:36;;;;;;;17.95;8.68;;;;;;;4.35;86.03;100416.23;1776708;80;21635;-72
2023/11/17 12:18:05;;;;;;;13.80;7.58;;;;;;;4.29;85.95;100419.58;1788294;80;21175;-80
2023/11/17 12:20:38;;;;;;;11.97;7.20;;;;;;;4.25;86.11;100420.90;1770770;80;21590;-72
2023/11/17 12:23:08;;;;;;;14.50;7.72;;;;;;;4.23;86.28;100419.70;1746747;80;21107;-72
2023/11/17 12:25:37;;;;;;;15.75;7.65;;;;;;;4.24;86.41;100414.62;1788287;80;21135;-72
2023/11/17 12:28:08;;;;;;;15.03;8.65;;;;;;;4.25;86.51;100418.19;1788067;80;21131;-74
2023/11/17 12:30:37;;;;;;;18.12;8.58;;;;;;;4.21;86.67;100412.73;1771115;80;21115;-74
2023/11/17 12:33:07;;;;;;;18.45;9.50;;;;;;;4.17;86.96;100412.70;1788045;80;21134;-71
2023/11/17 12:35:37;;;;;;;14.98;7.95;;;;;;;4.16;87.11;100414.55;1788167;80;21103;-72
2023/11/17 12:38:13;;;;;;;14.43;8.20;;;;;;;4.17;87.19;100410.84;1722950;80;21119;-75
2023/11/17 12:40:42;;;;;;;12.37;6.85;;;;;;;4.16;87.26;100403.71;1788215;79;21137;-72
2023/11/17 12:43:12;;;;;;;13.55;7.72;;;;;;;4.17;87.44;100409.48;1787990;80;21620;-73
2023/11/17 12:45:42;;;;;;;16.12;8.08;;;;;;;4.23;87.63;100410.71;1788386;80;21150;-74
2023/11/17 12:48:11;;;;;;;14.40;8.53;;;;;;;4.27;87.66;100412.95;1788195;80;21558;-74
2023/11/17 12:50:41;;;;;;;14.73;8.10;;;;;;;4.29;87.61;100412.30;1788141;80;21546;-72
2023/11/17 12:53:10;;;;;;;21.25;8.68;;;;;;;4.30;87.64;100419.92;1787935;79;21138;-71
2023/11/17 12:55:47;;;;;;;16.10;8.88;;;;;;;4.33;87.75;100425.89;1746257;80;21131;-74
2023/11/17 12:58:19;;;;;;;14.47;7.95;;;;;;;4.33;87.85;100423.69;1787863;80;21549;-72
2023/11/17 13:00:49;;;;;;;14.23;8.63;;;;;;;4.30;87.71;100415.35;1787921;79;21107;-72
2023/11/17 13:03:19;;;;;;;16.97;9.08;;;;;;;4.24;87.63;100420.05;1788200;80;21166;-73
2023/11/17 13:05:51;;;;;;;15.90;8.75;;;;;;;4.24;87.84;100419.20;1788228;80;21143;-72
2023/11/17 13:08:23;;;;;;;14.60;8.15;;;;;;;4.25;88.18;100427.17;1771038;80;21088;-73
2023/11/17 13:10:53;;;;;;;16.10;8.25;;;;;;;4.24;88.11;100425.98;1788118;80;21162;-73
2023/11/17 13:13:24;;;;;;;15.98;8.70;;;;;;;4.24;88.18;100423.27;1788259;80;21123;-73
2023/11/17 13:15:53;;;;;;;16.52;8.23;;;;;;;4.22;88.10;100418.50;1746590;80;21589;-72
2023/11/17 13:18:23;;;;;;;18.00;8.70;;;;;;;4.21;88.10;100424.43;1787875;80;21631;-73
2023/11/17 13:20:54;;;;;;;19.20;8.73;;;;;;;4.13;88.06;100418.94;1770817;79;21099;-72
2023/11/17 13:23:23;;;;;;;15.83;8.43;;;;;;;4.09;88.22;100423.82;1788069;80;21148;-73
2023/11/17 13:26:06;;;;;;;15.83;9.10;;;;;;;4.07;88.46;100426.34;1788123;80;21169;-74
2023/11/17 13:28:42;;;;;;;19.42;9.58;;;;;;;4.06;88.67;100425.48;1788560;79;21610;-73
2023/11/17 13:31:22;;;;;;;19.27;9.98;;;;;;;4.05;88.93;100422.93;1750769;82;21210;-75
2023/11/17 13:33:57;;;;;;;19.73;10.08;;;;;;;4.04;89.12;100423.94;1719664;83;21164;-73
2023/11/17 13:36:33;;;;;;;20.40;10.75;;;;;;;4.04;89.40;100428.00;1720934;82;21210;-72
2023/11/17 13:41:49;;;;;;;21.23;11.63;;;;;;;4.03;89.55;100427.66;1750586;82;21184;-72
2023/11/17 13:44:24;;;;;;;19.75;10.32;;;;;;;4.08;89.76;100428.04;1750964;82;21156;-74
2023/11/17 13:46:59;;;;;;;18.65;8.88;;;;;;;4.09;89.72;100422.46;1723858;82;21614;-73
2023/11/17 13:49:33;;;;;;;18.62;10.45;;;;;;;4.09;89.77;100425.17;1750721;82;21195;-72
2023/11/17 13:52:08;;;;;;;19.32;10.38;;;;;;;4.08;89.89;100427.53;1750715;82;21208;-74
2023/11/17 13:54:33;;;;;;;22.52;10.60;;;;;;;4.08;89.97;100426.18;1750616;82;21294;-73
2023/11/17 13:57:07;;;;;;;17.73;9.68;;;;;;;4.08;90.06;100420.76;1750820;82;21151;-73
2023/11/17 13:59:37;;;;;;;18.27;9.58;;;;;;;4.08;90.00;100426.18;1750918;82;21599;-73
2023/11/17 14:02:08;;;;;;;14.83;8.23;;;;;;;4.05;89.93;100418.86;1750972;82;21567;-77
2023/11/17 14:04:36;;;;;;;18.87;9.45;;;;;;;4.04;90.15;100416.66;1750801;82;21121;-72
2023/11/17 14:07:06;;;;;;;19.25;9.18;;;;;;;4.07;90.27;100419.05;1750934;82;21660;-72
2023/11/17 14:09:37;;;;;;;15.78;8.35;;;;;;;4.10;90.36;100416.53;1750269;82;21154;-72
2023/11/17 14:12:08;;;;;;;16.30;8.08;;;;;;;4.10;90.18;100416.03;1733878;83;21204;-72
2023/11/17 14:14:40;;;;;;;25.35;13.95;;;;;;;4.08;90.12;100418.55;1733716;82;21166;-73
2023/11/17 14:17:10;;;;;;;9.28;5.92;;;;;;;4.12;90.44;100422.15;1720820;83;21170;-72
2023/11/17 14:19:39;;;;;;;12.70;6.25;;;;;;;4.13;91.26;100422.50;1721128;83;21191;-72
2023/11/17 14:22:09;;;;;;;12.88;6.67;;;;;;;4.27;91.95;100421.59;1721012;83;21186;-73
2023/11/17 14:24:40;;;;;;;13.88;7.22;;;;;;;4.30;91.75;100424.84;1751090;82;21186;-73
2023/11/17 14:27:10;;;;;;;13.22;7.17;;;;;;;4.34;91.49;100421.31;1750864;82;21188;-72
2023/11/17 14:29:42;;;;;;;16.25;7.12;;;;;;;4.34;91.12;100421.31;1750777;82;21168;-72
2023/11/17 14:32:15;;;;;;;17.30;7.70;;;;;;;4.33;90.81;100423.17;1750572;82;21148;-75
2023/11/17 14:34:43;;;;;;;15.35;7.28;;;;;;;4.27;90.55;100418.38;1750635;82;21176;-76
2023/11/17 14:37:11;;;;;;;12.98;6.92;;;;;;;4.23;90.34;100422.92;1750978;82;21183;-74
2023/11/17 14:39:40;;;;;;;13.30;6.80;;;;;;;4.18;90.30;100422.03;1750505;82;21175;-76
2023/11/17 14:42:10;;;;;;;13.28;7.28;;;;;;;4.18;90.19;100426.60;1750578;82;21128;-77
2023/11/17 14:44:38;;;;;;;13.48;7.45;;;;;;;4.17;90.20;100424.90;1750701;82;21172;-77
2023/11/17 14:47:10;;;;;;;18.15;8.98;;;;;;;4.16;90.13;100429.98;1750963;82;21148;-78
2023/11/17 14:49:41;;;;;;;14.93;8.48;;;;;;;4.14;90.09;100432.34;1750881;82;21144;-77
2023/11/17 14:52:10;;;;;;;17.15;9.03;;;;;;;4.14;90.12;100430.13;1722893;82;21597;-79
2023/11/17 14:54:39;;;;;;;17.30;9.43;;;;;;;4.16;90.19;100429.98;1750658;82;21176;-76
2023/11/17 14:57:11;;;;;;;20.00;9.30;;;;;;;4.20;90.43;100428.15;1750916;82;21120;-80
2023/11/17 14:59:41;;;;;;;17.20;9.23;;;;;;;4.18;90.32;100430.16;1750840;82;21812;-75
2023/11/17 15:02:09;;;;;;;18.45;8.75;;;;;;;4.18;90.32;100438.30;1750801;82;21136;-75
2023/11/17 15:04:38;;;;;;;18.75;9.20;;;;;;;4.18;90.16;100434.73;1750759;82;21164;-77
2023/11/17 15:07:08;;;;;;;17.65;9.25;;;;;;;4.18;90.39;100438.80;1750681;82;21144;-76
2023/11/17 15:09:38;;;;;;;20.08;9.30;;;;;;;4.16;90.25;100439.47;1750758;82;21207;-76
2023/11/17 15:12:11;;;;;;;17.77;10.13;;;;;;;4.14;90.28;100444.54;1750982;82;21583;-77
2023/11/17 15:14:37;;;;;;;17.90;10.23;;;;;;;4.10;90.26;100448.56;1750879;82;21195;-77
2023/11/17 15:17:08;;;;;;;19.85;9.95;;;;;;;4.09;90.38;100454.15;1715754;83;21208;-76
2023/11/17 15:19:37;;;;;;;19.55;10.78;;;;;;;4.08;90.51;100453.30;1774315;81;21104;-75
2023/11/17 15:22:05;;;;;;;16.50;8.53;;;;;;;4.12;90.55;100460.11;1774242;81;21566;-78
2023/11/17 15:24:34;;;;;;;20.17;8.70;;;;;;;4.12;90.39;100455.19;1779914;80;21123;-76
2023/11/17 15:27:03;;;;;;;17.57;9.28;;;;;;;4.10;90.26;100453.99;1716018;83;21115;-76
2023/11/17 15:29:33;;;;;;;15.30;8.68;;;;;;;4.08;90.15;100457.36;1780273;80;21135;-75
2023/11/17 15:32:07;;;;;;;16.93;8.78;;;;;;;4.07;90.00;100461.08;1715924;83;21182;-76
2023/11/17 15:34:34;;;;;;;16.70;9.23;;;;;;;4.07;90.12;100453.45;1780172;80;21258;-76
2023/11/17 15:37:08;;;;;;;16.10;8.70;;;;;;;4.07;90.08;100448.03;1780162;80;21526;-77
2023/11/17 15:39:34;;;;;;;17.48;8.70;;;;;;;4.09;90.06;100455.00;1715826;83;21765;-76
2023/11/17 15:42:05;;;;;;;14.83;7.92;;;;;;;4.13;90.03;100459.10;1715940;83;21135;-79
2023/11/17 15:44:39;;;;;;;13.58;8.18;;;;;;;4.12;89.41;100453.84;1779972;80;21154;-75
2023/11/17 15:47:08;;;;;;;11.73;7.53;;;;;;;4.11;89.34;100458.91;1716118;83;21123;-76
2023/11/17 15:49:37;;;;;;;14.18;7.75;;;;;;;4.14;89.14;100461.31;1716311;83;21182;-75
2023/11/17 15:52:06;;;;;;;15.00;8.45;;;;;;;4.13;88.91;100463.67;1716075;83;21131;-76
2023/11/17 15:54:35;;;;;;;15.53;9.03;;;;;;;4.10;88.72;100460.77;1716103;83;21159;-75
2023/11/17 15:57:04;;;;;;;17.35;8.03;;;;;;;4.11;88.64;100462.47;1715851;83;21198;-76
2023/11/17 15:59:34;;;;;;;17.92;8.53;;;;;;;4.09;88.38;100467.20;1780233;80;21146;-75
2023/11/17 16:02:03;;;;;;;17.50;8.13;;;;;;;4.06;88.27;100466.16;1715990;83;21592;-78
2023/11/17 16:04:32;;;;;;;14.33;8.30;;;;;;;4.08;88.32;100464.64;1779918;80;21107;-76
2023/11/17 16:07:01;;;;;;;16.57;8.45;;;;;;;4.10;88.35;100459.41;1715958;83;21166;-77
2023/11/17 16:09:30;;;;;;;16.52;8.38;;;;;;;4.12;88.32;100465.53;1716221;83;21138;-78
2023/11/17 16:11:59;;;;;;;16.20;8.68;;;;;;;4.11;88.23;100471.96;1716057;83;21131;-76
2023/11/17 16:14:28;;;;;;;14.28;8.38;;;;;;;4.10;88.23;100475.69;1715787;83;21167;-74
2023/11/17 16:16:57;;;;;;;14.90;8.70;;;;;;;4.13;88.37;100475.38;1779883;80;21194;-77
2023/11/17 16:19:26;;;;;;;15.95;8.48;;;;;;;4.14;88.34;100473.02;1716246;83;21158;-77
2023/11/17 16:21:58;;;;;;;16.57;8.35;;;;;;;4.15;88.40;100472.51;1715979;83;21178;-77
2023/11/17 16:24:26;;;;;;;16.95;8.28;;;;;;;4.15;88.23;100482.00;1803376;79;21672;-76
2023/11/17 16:26:55;;;;;;;19.30;9.63;;;;;;;4.11;88.04;100480.09;1737325;82;21147;-75
2023/11/17 16:29:25;;;;;;;15.55;9.00;;;;;;;4.09;88.03;100486.17;1776350;79;21115;-75
2023/11/17 16:31:54;;;;;;;18.45;8.93;;;;;;;4.09;88.17;100484.83;1759165;79;21809;-76
2023/11/17 16:34:23;;;;;;;17.73;9.55;;;;;;;4.14;88.92;100483.00;1737392;82;21570;-77
2023/11/17 16:36:52;;;;;;;17.85;9.50;;;;;;;4.22;89.54;100480.87;1790529;79;21095;-76
2023/11/17 16:39:23;;;;;;;18.57;9.55;;;;;;;4.27;89.24;100486.69;1774511;81;21150;-76
2023/11/17 16:41:52;;;;;;;17.50;9.40;;;;;;;4.26;88.82;100482.27;1753573;81;21147;-77
2023/11/17 16:44:23;;;;;;;20.45;10.82;;;;;;;4.24;88.73;100482.93;1735655;82;21714;-75
2023/11/17 16:46:51;;;;;;;18.92;9.38;;;;;;;4.24;88.60;100474.80;1737396;82;21107;-74
2023/11/17 16:49:21;;;;;;;17.75;8.20;;;;;;;4.21;88.39;100472.39;1774235;81;21178;-76
2023/11/17 16:51:50;;;;;;;21.02;10.32;;;;;;;4.65;94.92;100475.52;1774364;81;21115;-74
2023/11/17 16:54:20;;;;;;;19.55;10.43;;;;;;;5.05;95.62;100470.02;1774192;80;21123;-71
2023/11/17 16:56:52;;;;;;;17.35;9.38;;;;;;;5.01;94.03;100471.36;1774332;81;21182;-72
2023/11/17 16:59:20;;;;;;;19.35;10.05;;;;;;;4.89;92.65;100471.28;1787780;79;21248;-71
2023/11/17 17:01:49;;;;;;;23.32;11.48;;;;;;;4.76;91.63;100471.19;1806186;79;21108;-74
2023/11/17 17:04:21;;;;;;;20.25;9.95;;;;;;;4.67;90.68;100476.72;1737696;82;21099;-75
2023/11/17 17:07:06;;;;;;;20.95;10.32;;;;;;;4.61;89.93;100478.20;1810337;79;21106;-74
2023/11/17 17:09:35;;;;;;;24.27;11.63;;;;;;;4.53;89.50;100474.03;1806147;79;21123;-73
2023/11/17 17:12:04;;;;;;;22.10;11.12;;;;;;;4.50;89.20;100477.06;1806269;79;21111;-73
2023/11/17 17:14:34;;;;;;;26.10;13.05;;;;;;;4.44;88.71;100474.97;1806063;79;21154;-74
2023/11/17 17:17:03;;;;;;;27.85;13.45;;;;;;;4.39;88.70;100471.88;1737497;82;21155;-73
2023/11/17 17:19:33;;;;;;;25.48;12.05;;;;;;;4.36;88.66;100470.33;1806351;79;21156;-73
2023/11/17 17:22:05;;;;;;;27.17;13.25;;;;;;;4.33;88.70;100472.00;1737783;82;21159;-74
2023/11/17 17:24:36;;;;;;;34.23;13.85;;;;;;;4.33;88.73;100477.93;1806356;79;21158;-72
2023/11/17 17:27:08;;;;;;;29.27;14.25;;;;;;;4.31;88.72;100478.08;1737684;82;21159;-73
2023/11/17 17:29:37;;;;;;;37.83;14.40;;;;;;;4.30;88.88;100472.31;1806261;79;21091;-73
2023/11/17 17:32:08;;;;;;;35.52;14.93;;;;;;;4.29;88.93;100480.60;1806221;79;21412;-73
2023/11/17 17:34:38;;;;;;;34.75;14.60;;;;;;;4.27;89.02;100481.27;1806237;79;21167;-73
2023/11/17 17:37:08;;;;;;;30.20;13.62;;;;;;;4.25;89.05;100482.77;1806384;79;21119;-72
2023/11/17 17:39:40;;;;;;;38.80;14.95;;;;;;;4.24;89.16;100482.42;1737650;82;21135;-73
2023/11/17 17:42:08;;;;;;;34.45;14.03;;;;;;;4.26;89.26;100483.63;1806534;79;21122;-74
2023/11/17 17:44:38;;;;;;;29.55;13.58;;;;;;;4.25;89.38;100477.85;1806258;79;21139;-73
2023/11/17 17:47:07;;;;;;;32.65;14.55;;;;;;;4.25;89.47;100481.42;1737768;82;21123;-75
2023/11/17 17:49:36;;;;;;;29.18;13.40;;;;;;;4.25;89.54;100479.20;1806257;79;21146;-73
2023/11/17 17:52:06;;;;;;;27.45;13.90;;;;;;;4.25;89.62;100480.06;1737778;82;21136;-73
2023/11/17 17:54:35;;;;;;;25.23;12.05;;;;;;;4.23;89.63;100474.44;1806157;79;21100;-72
2023/11/17 17:57:05;;;;;;;25.37;12.13;;;;;;;4.23;89.80;100470.38;1806240;79;21115;-73
2023/11/17 17:59:34;;;;;;;21.35;10.85;;;;;;;4.23;89.94;100466.30;1806494;79;21578;-74
2023/11/17 18:02:04;;;;;;;22.93;11.15;;;;;;;4.22;89.91;100460.54;1737947;82;21128;-75
2023/11/17 18:04:33;;;;;;;22.80;10.60;;;;;;;4.21;90.04;100462.90;1806274;79;21154;-73
2023/11/17 18:07:03;;;;;;;22.32;10.95;;;;;;;4.22;90.21;100456.47;1737779;82;21167;-75
2023/11/17 18:09:33;;;;;;;22.77;10.95;;;;;;;4.22;90.35;100460.03;1806283;79;21135;-73
2023/11/17 18:12:02;;;;;;;25.23;11.53;;;;;;;4.25;90.42;100462.94;1806410;79;21106;-74
2023/11/17 18:14:32;;;;;;;23.98;10.78;;;;;;;4.25;90.64;100462.44;1806285;79;21628;-73
2023/11/17 18:17:03;;;;;;;21.70;11.50;;;;;;;4.28;90.86;100462.62;1737809;82;21120;-72
2023/11/17 18:19:33;;;;;;;23.57;11.55;;;;;;;4.29;91.06;100460.27;1780298;80;21094;-74
2023/11/17 18:22:02;;;;;;;21.00;10.60;;;;;;;4.29;91.17;100459.75;1780135;80;21099;-73
2023/11/17 18:24:31;;;;;;;28.73;13.32;;;;;;;4.30;91.41;100464.17;1780152;80;21099;-73
2023/11/17 18:27:01;;;;;;;24.77;11.15;;;;;;;4.30;91.50;100463.33;1780001;80;21174;-72
2023/11/17 18:29:32;;;;;;;26.12;11.78;;;;;;;4.29;91.69;100467.89;1780108;80;21169;-73
2023/11/17 18:32:01;;;;;;;23.62;10.82;;;;;;;4.29;91.77;100469.75;1780239;80;21354;-74
2023/11/17 18:34:31;;;;;;;23.55;12.45;;;;;;;4.27;91.86;100471.27;1779968;80;21631;-74
2023/11/17 18:37:00;;;;;;;26.40;12.23;;;;;;;4.27;91.98;100470.41;1780153;80;21099;-73
2023/11/17 18:39:30;;;;;;;24.95;11.68;;;;;;;4.25;92.07;100468.36;1780002;80;21623;-72
2023/11/17 18:42:02;;;;;;;24.60;11.85;;;;;;;4.26;92.23;100467.36;1714980;82;21598;-73
2023/11/17 18:44:32;;;;;;;25.00;11.83;;;;;;;4.25;92.21;100466.50;1779998;80;21612;-76
2023/11/17 18:47:01;;;;;;;25.90;12.45;;;;;;;4.23;92.40;100465.80;1780115;80;21135;-73
2023/11/17 18:49:30;;;;;;;27.67;12.90;;;;;;;4.25;92.59;100466.50;1779951;80;21585;-74
2023/11/17 18:51:59;;;;;;;24.02;11.43;;;;;;;4.25;92.52;100465.65;1780129;80;21162;-74
2023/11/17 18:54:28;;;;;;;25.08;12.28;;;;;;;4.22;92.66;100470.03;1780162;80;21127;-74
2023/11/17 18:56:57;;;;;;;23.30;11.80;;;;;;;4.25;92.88;100461.58;1780001;80;21671;-74
2023/11/17 18:59:26;;;;;;;24.07;12.03;;;;;;;4.29;92.89;100471.11;1780049;80;21123;-72
2023/11/17 19:01:56;;;;;;;23.05;11.33;;;;;;;4.30;92.95;100474.17;1780214;80;21135;-74
2023/11/17 19:04:24;;;;;;;23.25;11.53;;;;;;;4.29;92.96;100471.96;1779982;80;21202;-71
2023/11/17 19:06:54;;;;;;;27.45;12.00;;;;;;;4.31;92.99;100472.66;1714531;82;21622;-75
2023/11/17 19:09:22;;;;;;;23.15;11.03;;;;;;;4.31;92.85;100475.37;1780359;80;21122;-73
2023/11/17 19:11:51;;;;;;;26.33;11.50;;;;;;;4.28;92.69;100470.77;1779997;80;21138;-73
2023/11/17 19:14:22;;;;;;;27.60;12.65;;;;;;;4.25;92.53;100471.07;1779959;80;21162;-74
2023/11/17 19:16:52;;;;;;;21.10;11.30;;;;;;;4.21;92.55;100482.73;1779927;80;21143;-74
2023/11/17 19:19:23;;;;;;;28.07;11.78;;;;;;;4.21;92.66;100477.31;1775030;80;21134;-75
2023/11/17 19:21:53;;;;;;;25.10;12.05;;;;;;;4.21;92.66;100479.17;1707944;84;21562;-73
2023/11/17 19:24:23;;;;;;;25.77;11.03;;;;;;;4.22;92.63;100474.95;1708153;84;21139;-74
2023/11/17 19:27:11;;;;;;;23.90;10.85;;;;;;;4.23;92.59;100481.22;1773768;81;21143;-74
2023/11/17 19:29:40;;;;;;;;;;;;;;;4.23;92.53;100475.30;1710231;84;21103;-74
2023/11/17 19:32:09;;;;;;;22.02;10.98;;;;;;;4.23;92.43;100484.78;1709466;84;20196;-74
2023/11/17 19:34:38;;;;;;;22.60;10.58;;;;;;;4.19;92.19;100478.47;1707805;84;21672;-74
2023/11/17 19:37:10;;;;;;;22.48;10.18;;;;;;;4.16;92.11;100486.41;1773777;81;21120;-73
2023/11/17 19:39:40;;;;;;;22.52;10.85;;;;;;;4.13;91.97;100487.58;1773884;81;21116;-74
2023/11/17 19:42:09;;;;;;;22.70;10.10;;;;;;;4.09;91.83;100496.17;1773829;81;21116;-73
2023/11/17 19:44:42;;;;;;;23.62;10.75;;;;;;;4.05;91.83;100490.20;1773669;81;21629;-72
2023/11/17 19:47:13;;;;;;;21.00;9.88;;;;;;;4.04;91.71;100495.28;1706650;84;21131;-74
2023/11/17 19:49:42;;;;;;;21.05;10.48;;;;;;;4.00;91.72;100495.23;1773648;81;21693;-74
2023/11/17 19:52:12;;;;;;;20.95;11.03;;;;;;;4.00;91.66;100497.95;1773732;81;21103;-74
2023/11/17 19:54:44;;;;;;;22.22;10.35;;;;;;;4.00;91.65;100495.73;1744051;81;21124;-73
2023/11/17 19:57:12;;;;;;;20.77;10.45;;;;;;;4.00;91.50;100497.09;1773571;81;21126;-75
2023/11/17 19:59:43;;;;;;;21.12;10.63;;;;;;;3.97;91.32;100494.19;1773741;81;21163;-74
2023/11/17 20:02:12;;;;;;;21.07;11.38;;;;;;;3.93;91.17;100500.06;1707773;84;21139;-73
2023/11/17 20:04:42;;;;;;;19.60;10.23;;;;;;;3.90;91.14;100500.34;1773663;81;21586;-74
2023/11/17 20:07:13;;;;;;;22.70;10.93;;;;;;;3.87;91.16;100496.08;1773656;81;21187;-75
2023/11/17 20:09:43;;;;;;;20.43;9.85;;;;;;;3.85;91.04;100497.23;1707992;83;21131;-74
2023/11/17 20:12:12;;;;;;;22.10;9.63;;;;;;;3.82;90.88;100503.81;1773793;81;21127;-74
2023/11/17 20:14:41;;;;;;;20.43;9.80;;;;;;;3.78;90.70;100504.61;1773772;81;21151;-73
2023/11/17 20:17:12;;;;;;;20.85;10.18;;;;;;;3.75;90.53;100500.85;1680184;84;21282;-74
2023/11/17 20:19:41;;;;;;;20.52;10.15;;;;;;;3.74;90.41;100507.78;1793478;79;21143;-74
2023/11/17 20:22:10;;;;;;;17.77;9.05;;;;;;;3.70;90.41;100505.02;1798971;79;21104;-73
2023/11/17 20:24:40;;;;;;;18.05;9.40;;;;;;;3.67;90.29;100502.61;1718428;83;21139;-74
2023/11/17 20:27:09;;;;;;;21.52;10.65;;;;;;;3.65;90.30;100495.14;1798938;80;21108;-73